createdAt,value
2019-01-14T00:03:07.226Z,30.93
2019-01-14T00:08:10.017Z,29.77
2019-01-14T00:13:12.986Z,28.43
2019-01-14T00:18:15.821Z,26.23
2019-01-14T00:23:18.588Z,22.20
2019-01-14T00:28:21.616Z,34.70
2019-01-14T00:33:24.403Z,26.47
2019-01-14T00:38:27.271Z,26.97
2019-01-14T00:43:29.956Z,32.70
2019-01-14T00:48:32.784Z,25.03
2019-01-14T00:53:35.644Z,27.87
2019-01-14T00:58:38.418Z,29.27
2019-01-14T01:03:41.083Z,31.03
2019-01-14T01:08:43.834Z,24.60
2019-01-14T01:13:46.743Z,27.63
2019-01-14T01:18:49.593Z,32.53
2019-01-14T01:23:52.397Z,30.13
2019-01-14T01:28:55.458Z,27.40
2019-01-14T01:33:58.206Z,27.97
2019-01-14T01:39:01.032Z,27.77
2019-01-14T01:44:04.232Z,32.47
2019-01-14T01:49:06.889Z,27.93
2019-01-14T01:54:09.657Z,31.53
2019-01-14T01:59:12.442Z,23.93
2019-01-14T02:04:15.216Z,27.87
2019-01-14T02:09:18.017Z,30.43
2019-01-14T02:14:21.178Z,32.93
2019-01-14T02:19:23.924Z,36.80
2019-01-14T02:24:26.771Z,26.87
2019-01-14T02:29:29.551Z,24.57
2019-01-14T02:34:32.235Z,29.10
2019-01-14T02:39:35.130Z,28.20
2019-01-14T02:44:37.882Z,25.33
2019-01-14T02:49:40.729Z,30.60
2019-01-14T02:54:43.579Z,28.67
2019-01-14T02:59:46.459Z,23.70
2019-01-14T03:04:49.117Z,26.63
2019-01-14T03:09:51.989Z,19.67
2019-01-14T03:14:55.049Z,26.80
2019-01-14T03:19:57.708Z,23.10
2019-01-14T03:25:00.498Z,23.83
2019-01-14T03:30:05.337Z,27.43
2019-01-14T03:35:08.563Z,24.37
2019-01-14T03:40:13.512Z,20.43
2019-01-14T03:45:17.098Z,25.63
2019-01-14T03:50:22.532Z,21.43
2019-01-14T03:55:25.395Z,20.57
2019-01-14T04:00:28.203Z,25.10
2019-01-14T04:05:31.056Z,22.73
2019-01-14T04:10:33.832Z,16.80
2019-01-14T04:15:36.771Z,19.57
2019-01-14T04:20:39.497Z,18.73
2019-01-14T04:25:42.170Z,18.07
2019-01-14T04:30:45.241Z,26.40
2019-01-14T04:35:47.922Z,18.83
2019-01-14T04:40:50.673Z,16.83
2019-01-14T04:45:53.414Z,16.07
2019-01-14T04:50:56.180Z,17.80
2019-01-14T04:55:59.194Z,18.73
2019-01-14T05:01:03.761Z,19.90
2019-01-14T05:06:06.512Z,18.27
2019-01-14T05:11:09.339Z,22.40
2019-01-14T05:16:12.187Z,18.37
2019-01-14T05:21:14.910Z,16.40
2019-01-14T05:26:17.750Z,18.00
2019-01-14T05:31:20.592Z,16.60
2019-01-14T05:36:23.403Z,27.17
2019-01-14T05:41:26.127Z,20.20
2019-01-14T05:46:28.782Z,18.67
2019-01-14T05:51:31.512Z,21.07
2019-01-14T05:56:34.214Z,26.57
2019-01-14T06:01:36.914Z,18.30
2019-01-14T06:06:39.732Z,21.43
2019-01-14T06:11:42.515Z,22.60
2019-01-14T06:16:45.390Z,16.77
2019-01-14T06:21:48.199Z,16.57
2019-01-14T06:26:51.049Z,29.53
2019-01-14T06:31:53.915Z,17.10
2019-01-14T06:36:56.765Z,18.47
2019-01-14T06:41:59.472Z,27.40
2019-01-14T06:47:02.214Z,16.17
2019-01-14T06:52:04.958Z,21.40
2019-01-14T06:57:07.918Z,17.60
2019-01-14T07:02:11.079Z,18.57
2019-01-14T07:07:13.797Z,11.23
2019-01-14T07:12:16.622Z,20.10
2019-01-14T07:17:19.681Z,18.90
2019-01-14T07:22:22.447Z,17.67
2019-01-14T07:27:25.294Z,14.00
2019-01-14T07:32:28.150Z,17.07
2019-01-14T07:37:30.829Z,19.53
2019-01-14T07:42:33.630Z,26.80
2019-01-14T07:47:36.533Z,37.47
2019-01-14T07:52:39.885Z,24.57
2019-01-14T07:57:42.582Z,19.17
2019-01-14T08:02:45.635Z,18.97
2019-01-14T08:07:48.682Z,12.43
2019-01-14T08:12:51.576Z,20.83
2019-01-14T08:17:54.304Z,20.40
2019-01-14T08:22:57.063Z,18.07
2019-01-14T08:27:59.784Z,19.73
2019-01-14T08:33:03.109Z,23.83
2019-01-14T08:38:06.353Z,13.37
2019-01-14T08:43:09.188Z,26.23
2019-01-14T08:48:11.926Z,23.80
2019-01-14T08:53:14.967Z,18.00
2019-01-14T08:58:17.726Z,19.70
2019-01-14T09:03:20.529Z,21.70
2019-01-14T09:08:28.705Z,16.70
2019-01-14T09:13:28.071Z,13.60
2019-01-14T09:18:31.034Z,12.77
2019-01-14T09:23:33.997Z,14.13
2019-01-14T09:28:36.693Z,19.00
2019-01-14T09:33:39.685Z,17.57
2019-01-14T09:38:42.449Z,22.93
2019-01-14T09:43:45.167Z,18.77
2019-01-14T09:48:48.115Z,19.50
2019-01-14T09:53:50.800Z,18.70
2019-01-14T09:58:53.529Z,23.20
2019-01-14T10:03:56.177Z,18.80
2019-01-14T10:08:59.272Z,18.50
2019-01-14T10:14:02.365Z,12.87
2019-01-14T10:19:05.559Z,18.13
2019-01-14T10:24:08.269Z,20.20
2019-01-14T10:29:10.987Z,18.10
2019-01-14T10:34:13.921Z,25.00
2019-01-14T10:39:17.110Z,22.10
2019-01-14T10:44:20.372Z,17.47
2019-01-14T10:49:23.126Z,18.53
2019-01-14T10:54:26.150Z,17.00
2019-01-14T10:59:29.055Z,15.53
2019-01-14T11:04:32.155Z,21.23
2019-01-14T11:09:34.992Z,20.33
2019-01-14T11:14:37.873Z,18.53
2019-01-14T11:19:41.057Z,13.30
2019-01-14T11:24:52.729Z,12.10
2019-01-14T11:29:55.515Z,14.30
2019-01-14T11:34:58.372Z,20.73
2019-01-14T11:40:04.352Z,22.10
2019-01-14T11:45:08.971Z,20.07
2019-01-14T11:50:13.552Z,15.37
2019-01-14T11:55:16.592Z,13.13
2019-01-14T12:00:22.802Z,19.50
2019-01-14T12:05:25.615Z,13.73
2019-01-14T12:10:28.462Z,20.10
2019-01-14T12:15:31.492Z,22.57
2019-01-14T12:20:35.492Z,18.97
2019-01-14T12:25:38.432Z,15.80
2019-01-14T12:30:41.810Z,14.13
2019-01-14T12:35:44.939Z,14.53
2019-01-14T12:40:47.958Z,10.90
2019-01-14T12:45:51.070Z,20.57
2019-01-14T12:50:53.990Z,27.00
2019-01-14T12:55:56.792Z,22.00
2019-01-14T13:00:59.670Z,13.50
2019-01-14T13:06:02.490Z,20.70
2019-01-14T13:11:05.532Z,20.70
2019-01-14T13:16:08.571Z,23.77
2019-01-14T13:21:11.794Z,21.73
2019-01-14T13:26:14.810Z,19.07
2019-01-14T13:31:17.530Z,17.37
2019-01-14T13:36:20.553Z,12.20
2019-01-14T13:41:23.442Z,16.53
2019-01-14T13:46:26.447Z,17.67
2019-01-14T13:51:29.513Z,20.03
2019-01-14T13:56:32.392Z,18.53
2019-01-14T14:01:35.392Z,11.80
2019-01-14T14:06:38.453Z,10.80
2019-01-14T14:11:41.255Z,13.93
2019-01-14T14:16:44.033Z,15.87
2019-01-14T14:21:47.663Z,13.27
2019-01-14T14:26:50.993Z,13.27
2019-01-14T14:31:54.070Z,17.53
2019-01-14T14:36:56.750Z,12.20
2019-01-14T14:41:59.655Z,12.30
2019-01-14T14:47:02.625Z,9.87
2019-01-14T14:52:07.067Z,10.93
2019-01-14T14:57:10.026Z,14.80
2019-01-14T15:02:12.862Z,14.03
2019-01-14T15:07:15.595Z,13.23
2019-01-14T15:12:18.336Z,12.47
2019-01-14T15:17:21.212Z,13.93
2019-01-14T15:22:24.124Z,16.87
2019-01-14T15:27:26.959Z,11.43
2019-01-14T15:32:29.908Z,10.90
2019-01-14T15:37:32.593Z,20.70
2019-01-14T15:42:35.531Z,18.20
2019-01-14T15:47:38.504Z,16.70
2019-01-14T15:52:41.205Z,13.53
2019-01-14T15:57:44.007Z,13.70
2019-01-14T16:02:47.297Z,12.77
2019-01-14T16:07:50.160Z,9.70
2019-01-14T16:12:52.818Z,9.70
2019-01-14T16:17:55.805Z,12.67
2019-01-14T16:22:59.544Z,12.63
2019-01-14T16:28:02.397Z,17.33
2019-01-14T16:33:05.124Z,12.50
2019-01-14T16:38:07.878Z,17.27
2019-01-14T16:43:10.769Z,14.50
2019-01-14T16:48:13.565Z,10.30
2019-01-14T16:53:16.379Z,14.43
2019-01-14T16:58:22.366Z,13.43
2019-01-14T17:03:25.140Z,11.53
2019-01-14T17:08:27.856Z,9.27
2019-01-14T17:13:30.758Z,8.93
2019-01-14T17:18:33.676Z,8.60
2019-01-14T17:23:37.411Z,13.03
2019-01-14T17:28:40.327Z,14.27
2019-01-14T17:33:43.091Z,6.63
2019-01-14T17:38:46.000Z,8.80
2019-01-14T17:43:48.753Z,15.30
2019-01-14T17:48:52.056Z,11.67
2019-01-14T17:53:54.988Z,11.70
2019-01-14T17:58:57.675Z,13.93
2019-01-14T18:04:00.550Z,8.17
2019-01-14T18:09:07.025Z,10.67
2019-01-14T18:14:09.984Z,10.57
2019-01-14T18:19:12.841Z,10.23
2019-01-14T18:24:16.541Z,11.30
2019-01-14T18:29:19.245Z,9.67
2019-01-14T18:34:22.253Z,9.93
2019-01-14T18:39:24.981Z,19.80
2019-01-14T18:44:27.810Z,15.17
2019-01-14T18:49:30.535Z,13.30
2019-01-14T18:54:33.300Z,11.23
2019-01-14T18:59:36.157Z,15.93
2019-01-14T19:04:38.950Z,16.50
2019-01-14T19:09:41.805Z,11.43
2019-01-14T19:14:44.583Z,7.97
2019-01-14T19:19:47.376Z,17.30
2019-01-14T19:24:51.023Z,14.10
2019-01-14T19:29:53.904Z,17.03
2019-01-14T19:34:56.622Z,10.83
2019-01-14T19:39:59.528Z,12.27
2019-01-14T19:45:02.478Z,8.10
2019-01-14T19:50:09.833Z,13.57
2019-01-14T19:55:13.116Z,14.97
2019-01-14T20:00:22.699Z,11.20
2019-01-14T20:05:25.587Z,8.47
2019-01-14T20:10:28.725Z,9.50
2019-01-14T20:15:31.556Z,10.10
2019-01-14T20:20:34.486Z,12.83
2019-01-14T20:25:37.322Z,8.00
2019-01-14T20:30:40.278Z,8.70
2019-01-14T20:35:43.130Z,16.00
2019-01-14T20:40:45.948Z,13.03
2019-01-14T20:45:48.671Z,10.43
2019-01-14T20:50:51.600Z,12.53
2019-01-14T20:55:54.451Z,15.67
2019-01-14T21:00:57.110Z,10.87
2019-01-14T21:05:59.965Z,8.77
2019-01-14T21:11:02.728Z,12.20
2019-01-14T21:16:05.520Z,13.90
2019-01-14T21:21:08.486Z,11.10
2019-01-14T21:26:11.410Z,7.20
2019-01-14T21:31:14.215Z,14.50
2019-01-14T21:36:17.088Z,15.07
2019-01-14T21:41:19.771Z,15.53
2019-01-14T21:46:22.476Z,13.70
2019-01-14T21:51:25.263Z,17.80
2019-01-14T21:56:28.118Z,14.63
2019-01-14T22:01:30.980Z,16.13
2019-01-14T22:06:33.673Z,13.87
2019-01-14T22:11:38.764Z,13.67
2019-01-14T22:16:41.088Z,9.97
2019-01-14T22:21:43.828Z,13.53
2019-01-14T22:26:46.964Z,14.93
2019-01-14T22:31:49.674Z,15.10
2019-01-14T22:36:52.363Z,11.20
2019-01-14T22:41:55.106Z,14.17
2019-01-14T22:46:57.915Z,14.60
2019-01-14T22:52:00.690Z,15.50
2019-01-14T22:57:03.556Z,15.37
2019-01-14T23:02:06.370Z,8.90
2019-01-14T23:07:09.157Z,11.57
2019-01-14T23:12:11.927Z,14.70
2019-01-14T23:17:14.613Z,14.30
2019-01-14T23:22:17.376Z,9.27
2019-01-14T23:27:20.169Z,14.67
2019-01-14T23:32:22.889Z,12.23
2019-01-14T23:37:25.650Z,11.60
2019-01-14T23:42:28.448Z,10.73
2019-01-14T23:47:31.123Z,16.10
2019-01-14T23:52:33.815Z,12.73
2019-01-14T23:57:36.458Z,15.00
